sensor_id;sensor_type;location;lat;lon;timestamp;temperature;humidity
1716;DHT22;855;48.824;9.220;2023-04-03T00:01:10;5.70;79.20
1716;DHT22;855;48.824;9.220;2023-04-03T00:03:37;5.70;79.00
1716;DHT22;855;48.824;9.220;2023-04-03T00:06:04;5.70;79.20
1716;DHT22;855;48.824;9.220;2023-04-03T00:08:33;5.80;78.80
1716;DHT22;855;48.824;9.220;2023-04-03T00:11:00;5.70;78.60
1716;DHT22;855;48.824;9.220;2023-04-03T00:13:27;5.70;78.70
1716;DHT22;855;48.824;9.220;2023-04-03T00:15:54;5.70;79.00
1716;DHT22;855;48.824;9.220;2023-04-03T00:18:21;5.80;78.40
1716;DHT22;855;48.824;9.220;2023-04-03T00:20:49;5.60;79.10
1716;DHT22;855;48.824;9.220;2023-04-03T00:23:16;5.60;79.70
1716;DHT22;855;48.824;9.220;2023-04-03T00:25:44;5.60;79.30
1716;DHT22;855;48.824;9.220;2023-04-03T00:28:11;5.60;79.30
1716;DHT22;855;48.824;9.220;2023-04-03T00:30:38;5.60;79.30
1716;DHT22;855;48.824;9.220;2023-04-03T00:33:04;5.70;79.50
1716;DHT22;855;48.824;9.220;2023-04-03T00:35:33;5.70;79.20
1716;DHT22;855;48.824;9.220;2023-04-03T00:38:00;5.80;79.10
1716;DHT22;855;48.824;9.220;2023-04-03T00:40:27;5.70;79.10
1716;DHT22;855;48.824;9.220;2023-04-03T00:42:58;5.70;79.10
1716;DHT22;855;48.824;9.220;2023-04-03T00:45:33;5.70;79.10
1716;DHT22;855;48.824;9.220;2023-04-03T00:48:01;5.70;79.10
1716;DHT22;855;48.824;9.220;2023-04-03T00:50:33;5.70;79.20
1716;DHT22;855;48.824;9.220;2023-04-03T00:53:01;5.70;79.30
1716;DHT22;855;48.824;9.220;2023-04-03T00:55:29;5.60;79.70
1716;DHT22;855;48.824;9.220;2023-04-03T00:57:57;5.60;79.50
1716;DHT22;855;48.824;9.220;2023-04-03T01:00:26;5.60;79.90
1716;DHT22;855;48.824;9.220;2023-04-03T01:02:53;5.60;79.90
1716;DHT22;855;48.824;9.220;2023-04-03T01:05:20;5.70;79.90
1716;DHT22;855;48.824;9.220;2023-04-03T01:07:49;5.70;79.70
1716;DHT22;855;48.824;9.220;2023-04-03T01:10:17;5.70;79.20
1716;DHT22;855;48.824;9.220;2023-04-03T01:12:47;5.70;79.70
1716;DHT22;855;48.824;9.220;2023-04-03T01:15:18;5.70;79.10
1716;DHT22;855;48.824;9.220;2023-04-03T01:17:47;5.70;79.10
1716;DHT22;855;48.824;9.220;2023-04-03T01:20:42;5.60;79.10
1716;DHT22;855;48.824;9.220;2023-04-03T01:23:32;5.60;79.20
1716;DHT22;855;48.824;9.220;2023-04-03T01:26:02;5.70;79.30
1716;DHT22;855;48.824;9.220;2023-04-03T01:28:31;5.80;79.10
1716;DHT22;855;48.824;9.220;2023-04-03T01:31:06;5.70;78.80
1716;DHT22;855;48.824;9.220;2023-04-03T01:33:37;5.70;79.50
1716;DHT22;855;48.824;9.220;2023-04-03T01:36:05;5.80;79.50
1716;DHT22;855;48.824;9.220;2023-04-03T01:38:32;5.70;79.30
1716;DHT22;855;48.824;9.220;2023-04-03T01:40:59;5.70;79.10
1716;DHT22;855;48.824;9.220;2023-04-03T01:43:26;5.60;79.20
1716;DHT22;855;48.824;9.220;2023-04-03T01:45:53;5.60;79.70
1716;DHT22;855;48.824;9.220;2023-04-03T01:48:20;5.60;80.40
1716;DHT22;855;48.824;9.220;2023-04-03T01:50:48;5.70;79.90
1716;DHT22;855;48.824;9.220;2023-04-03T01:53:15;5.70;79.30
1716;DHT22;855;48.824;9.220;2023-04-03T01:55:42;5.90;79.60
1716;DHT22;855;48.824;9.220;2023-04-03T01:58:09;5.90;79.10
1716;DHT22;855;48.824;9.220;2023-04-03T02:00:36;5.90;79.30
1716;DHT22;855;48.824;9.220;2023-04-03T02:03:03;6.10;79.50
1716;DHT22;855;48.824;9.220;2023-04-03T02:05:31;6.00;78.40
1716;DHT22;855;48.824;9.220;2023-04-03T02:08:00;6.00;78.20
1716;DHT22;855;48.824;9.220;2023-04-03T02:10:26;6.00;77.90
1716;DHT22;855;48.824;9.220;2023-04-03T02:12:53;6.10;77.80
1716;DHT22;855;48.824;9.220;2023-04-03T02:15:20;6.00;76.70
1716;DHT22;855;48.824;9.220;2023-04-03T02:17:47;5.90;77.20
1716;DHT22;855;48.824;9.220;2023-04-03T02:20:14;5.80;76.80
1716;DHT22;855;48.824;9.220;2023-04-03T02:22:41;5.70;77.20
1716;DHT22;855;48.824;9.220;2023-04-03T02:25:10;5.80;77.20
1716;DHT22;855;48.824;9.220;2023-04-03T02:27:37;5.90;77.10
1716;DHT22;855;48.824;9.220;2023-04-03T02:30:05;6.00;75.80
1716;DHT22;855;48.824;9.220;2023-04-03T02:32:32;5.90;75.30
1716;DHT22;855;48.824;9.220;2023-04-03T02:34:59;5.80;75.00
1716;DHT22;855;48.824;9.220;2023-04-03T02:37:25;5.70;75.00
1716;DHT22;855;48.824;9.220;2023-04-03T02:39:52;5.60;76.20
1716;DHT22;855;48.824;9.220;2023-04-03T02:42:20;5.70;75.40
1716;DHT22;855;48.824;9.220;2023-04-03T02:44:47;5.60;75.10
1716;DHT22;855;48.824;9.220;2023-04-03T02:47:14;5.70;75.50
1716;DHT22;855;48.824;9.220;2023-04-03T02:49:41;5.70;74.60
1716;DHT22;855;48.824;9.220;2023-04-03T02:52:09;5.80;74.20
1716;DHT22;855;48.824;9.220;2023-04-03T02:54:36;5.90;73.50
1716;DHT22;855;48.824;9.220;2023-04-03T02:57:02;5.90;73.40
1716;DHT22;855;48.824;9.220;2023-04-03T02:59:31;5.70;72.90
1716;DHT22;855;48.824;9.220;2023-04-03T03:01:57;5.60;73.10
1716;DHT22;855;48.824;9.220;2023-04-03T03:04:24;5.50;73.70
1716;DHT22;855;48.824;9.220;2023-04-03T03:06:51;5.50;73.80
1716;DHT22;855;48.824;9.220;2023-04-03T03:09:18;5.60;74.20
1716;DHT22;855;48.824;9.220;2023-04-03T03:11:45;5.60;73.70
1716;DHT22;855;48.824;9.220;2023-04-03T03:14:11;5.60;74.10
1716;DHT22;855;48.824;9.220;2023-04-03T03:16:39;5.50;73.70
1716;DHT22;855;48.824;9.220;2023-04-03T03:19:06;5.60;74.20
1716;DHT22;855;48.824;9.220;2023-04-03T03:21:33;5.60;73.80
1716;DHT22;855;48.824;9.220;2023-04-03T03:24:00;5.50;74.10
1716;DHT22;855;48.824;9.220;2023-04-03T03:26:27;5.60;74.30
1716;DHT22;855;48.824;9.220;2023-04-03T03:28:54;5.70;74.50
1716;DHT22;855;48.824;9.220;2023-04-03T03:31:21;5.80;73.80
1716;DHT22;855;48.824;9.220;2023-04-03T03:33:49;5.70;73.40
1716;DHT22;855;48.824;9.220;2023-04-03T03:36:15;5.70;73.50
1716;DHT22;855;48.824;9.220;2023-04-03T03:38:42;5.50;74.50
1716;DHT22;855;48.824;9.220;2023-04-03T03:41:09;5.50;75.10
1716;DHT22;855;48.824;9.220;2023-04-03T03:43:36;5.60;75.40
1716;DHT22;855;48.824;9.220;2023-04-03T03:46:03;5.40;75.50
1716;DHT22;855;48.824;9.220;2023-04-03T03:48:29;5.40;76.00
1716;DHT22;855;48.824;9.220;2023-04-03T03:50:58;5.50;76.20
1716;DHT22;855;48.824;9.220;2023-04-03T03:53:24;5.40;76.30
1716;DHT22;855;48.824;9.220;2023-04-03T03:55:51;5.40;76.60
1716;DHT22;855;48.824;9.220;2023-04-03T03:58:18;5.50;76.70
1716;DHT22;855;48.824;9.220;2023-04-03T04:00:45;5.60;76.40
1716;DHT22;855;48.824;9.220;2023-04-03T04:03:12;5.60;76.60
1716;DHT22;855;48.824;9.220;2023-04-03T04:05:38;5.70;77.00
1716;DHT22;855;48.824;9.220;2023-04-03T04:08:07;5.90;75.90
1716;DHT22;855;48.824;9.220;2023-04-03T04:10:34;5.90;75.40
1716;DHT22;855;48.824;9.220;2023-04-03T04:13:01;5.90;75.30
1716;DHT22;855;48.824;9.220;2023-04-03T04:15:27;5.70;72.60
1716;DHT22;855;48.824;9.220;2023-04-03T04:17:54;5.50;72.60
1716;DHT22;855;48.824;9.220;2023-04-03T04:20:22;5.60;73.30
1716;DHT22;855;48.824;9.220;2023-04-03T04:22:49;5.60;72.90
1716;DHT22;855;48.824;9.220;2023-04-03T04:25:17;5.70;73.30
1716;DHT22;855;48.824;9.220;2023-04-03T04:27:44;5.90;73.10
1716;DHT22;855;48.824;9.220;2023-04-03T04:30:12;6.00;72.90
1716;DHT22;855;48.824;9.220;2023-04-03T04:32:39;6.00;72.10
1716;DHT22;855;48.824;9.220;2023-04-03T04:35:06;6.00;72.30
1716;DHT22;855;48.824;9.220;2023-04-03T04:37:33;6.10;72.30
1716;DHT22;855;48.824;9.220;2023-04-03T04:40:00;6.00;71.60
1716;DHT22;855;48.824;9.220;2023-04-03T04:42:29;6.00;71.40
1716;DHT22;855;48.824;9.220;2023-04-03T04:44:55;6.00;71.90
1716;DHT22;855;48.824;9.220;2023-04-03T04:47:22;6.00;69.60
1716;DHT22;855;48.824;9.220;2023-04-03T04:49:49;5.80;68.60
1716;DHT22;855;48.824;9.220;2023-04-03T04:52:16;5.60;69.40
1716;DHT22;855;48.824;9.220;2023-04-03T04:54:43;5.70;69.70
1716;DHT22;855;48.824;9.220;2023-04-03T04:57:09;5.90;68.60
1716;DHT22;855;48.824;9.220;2023-04-03T04:59:38;6.00;69.30
1716;DHT22;855;48.824;9.220;2023-04-03T05:02:04;6.00;68.90
1716;DHT22;855;48.824;9.220;2023-04-03T05:04:31;6.00;69.20
1716;DHT22;855;48.824;9.220;2023-04-03T05:06:58;6.00;69.60
1716;DHT22;855;48.824;9.220;2023-04-03T05:09:25;6.00;69.60
1716;DHT22;855;48.824;9.220;2023-04-03T05:11:52;5.90;69.80
1716;DHT22;855;48.824;9.220;2023-04-03T05:14:19;5.90;70.20
1716;DHT22;855;48.824;9.220;2023-04-03T05:16:48;5.90;70.40
1716;DHT22;855;48.824;9.220;2023-04-03T05:19:18;5.90;70.90
1716;DHT22;855;48.824;9.220;2023-04-03T05:21:45;5.90;70.80
1716;DHT22;855;48.824;9.220;2023-04-03T05:24:11;5.70;70.80
1716;DHT22;855;48.824;9.220;2023-04-03T05:26:38;5.70;71.60
1716;DHT22;855;48.824;9.220;2023-04-03T05:29:06;5.60;71.60
1716;DHT22;855;48.824;9.220;2023-04-03T05:31:33;5.60;72.10
1716;DHT22;855;48.824;9.220;2023-04-03T05:34:01;5.60;71.90
1716;DHT22;855;48.824;9.220;2023-04-03T05:36:28;5.60;72.20
1716;DHT22;855;48.824;9.220;2023-04-03T05:38:55;5.60;71.60
1716;DHT22;855;48.824;9.220;2023-04-03T05:41:23;5.50;71.80
1716;DHT22;855;48.824;9.220;2023-04-03T05:43:51;5.60;71.60
1716;DHT22;855;48.824;9.220;2023-04-03T05:46:19;5.40;71.70
1716;DHT22;855;48.824;9.220;2023-04-03T05:48:47;5.30;71.80
1716;DHT22;855;48.824;9.220;2023-04-03T05:51:17;5.20;72.20
1716;DHT22;855;48.824;9.220;2023-04-03T05:53:45;5.30;72.60
1716;DHT22;855;48.824;9.220;2023-04-03T05:56:12;5.30;71.80
1716;DHT22;855;48.824;9.220;2023-04-03T05:58:39;5.40;71.20
1716;DHT22;855;48.824;9.220;2023-04-03T06:01:06;5.40;71.40
1716;DHT22;855;48.824;9.220;2023-04-03T06:03:33;5.40;71.30
1716;DHT22;855;48.824;9.220;2023-04-03T06:06:02;5.40;72.10
1716;DHT22;855;48.824;9.220;2023-04-03T06:08:31;5.50;71.30
1716;DHT22;855;48.824;9.220;2023-04-03T06:10:58;5.60;71.30
1716;DHT22;855;48.824;9.220;2023-04-03T06:13:25;5.60;71.60
1716;DHT22;855;48.824;9.220;2023-04-03T06:15:52;5.80;72.20
1716;DHT22;855;48.824;9.220;2023-04-03T06:18:18;5.90;71.90
1716;DHT22;855;48.824;9.220;2023-04-03T06:20:46;6.00;70.60
1716;DHT22;855;48.824;9.220;2023-04-03T06:23:12;6.10;70.10
1716;DHT22;855;48.824;9.220;2023-04-03T06:25:41;5.90;70.00
1716;DHT22;855;48.824;9.220;2023-04-03T06:28:08;5.90;70.80
1716;DHT22;855;48.824;9.220;2023-04-03T06:30:35;5.70;70.60
1716;DHT22;855;48.824;9.220;2023-04-03T06:33:03;5.70;71.60
1716;DHT22;855;48.824;9.220;2023-04-03T06:35:30;5.80;71.70
1716;DHT22;855;48.824;9.220;2023-04-03T06:37:57;5.90;71.90
1716;DHT22;855;48.824;9.220;2023-04-03T06:40:25;6.00;71.20
1716;DHT22;855;48.824;9.220;2023-04-03T06:42:54;5.70;71.20
1716;DHT22;855;48.824;9.220;2023-04-03T06:45:20;5.80;71.80
1716;DHT22;855;48.824;9.220;2023-04-03T06:47:47;5.70;71.60
1716;DHT22;855;48.824;9.220;2023-04-03T06:50:14;5.40;72.50
1716;DHT22;855;48.824;9.220;2023-04-03T06:52:41;5.30;73.30
1716;DHT22;855;48.824;9.220;2023-04-03T06:55:09;5.40;73.70
1716;DHT22;855;48.824;9.220;2023-04-03T06:57:37;5.60;73.30
1716;DHT22;855;48.824;9.220;2023-04-03T07:00:07;5.70;73.00
1716;DHT22;855;48.824;9.220;2023-04-03T07:02:34;5.80;73.10
1716;DHT22;855;48.824;9.220;2023-04-03T07:05:02;5.90;72.70
1716;DHT22;855;48.824;9.220;2023-04-03T07:07:29;5.70;72.30
1716;DHT22;855;48.824;9.220;2023-04-03T07:09:56;5.70;72.70
1716;DHT22;855;48.824;9.220;2023-04-03T07:12:22;5.60;73.30
1716;DHT22;855;48.824;9.220;2023-04-03T07:14:49;5.70;73.50
1716;DHT22;855;48.824;9.220;2023-04-03T07:17:18;5.80;73.80
1716;DHT22;855;48.824;9.220;2023-04-03T07:19:45;6.00;73.40
1716;DHT22;855;48.824;9.220;2023-04-03T07:22:12;5.90;72.30
1716;DHT22;855;48.824;9.220;2023-04-03T07:24:39;5.80;73.00
1716;DHT22;855;48.824;9.220;2023-04-03T07:27:06;5.90;73.40
1716;DHT22;855;48.824;9.220;2023-04-03T07:29:34;6.00;73.10
1716;DHT22;855;48.824;9.220;2023-04-03T07:32:02;6.10;72.90
1716;DHT22;855;48.824;9.220;2023-04-03T07:34:30;6.10;72.20
1716;DHT22;855;48.824;9.220;2023-04-03T07:36:58;5.90;72.70
1716;DHT22;855;48.824;9.220;2023-04-03T07:39:25;6.00;73.50
1716;DHT22;855;48.824;9.220;2023-04-03T07:41:53;6.20;73.10
1716;DHT22;855;48.824;9.220;2023-04-03T07:44:20;6.10;73.40
1716;DHT22;855;48.824;9.220;2023-04-03T07:46:47;6.20;73.40
1716;DHT22;855;48.824;9.220;2023-04-03T07:49:16;6.10;73.30
1716;DHT22;855;48.824;9.220;2023-04-03T07:51:45;6.10;73.30
1716;DHT22;855;48.824;9.220;2023-04-03T07:54:12;6.10;73.10
1716;DHT22;855;48.824;9.220;2023-04-03T07:56:39;6.20;73.40
1716;DHT22;855;48.824;9.220;2023-04-03T07:59:08;6.10;72.20
1716;DHT22;855;48.824;9.220;2023-04-03T08:01:35;5.90;73.00
1716;DHT22;855;48.824;9.220;2023-04-03T08:04:02;6.00;73.70
1716;DHT22;855;48.824;9.220;2023-04-03T08:06:30;5.90;73.50
1716;DHT22;855;48.824;9.220;2023-04-03T08:09:01;6.00;74.30
1716;DHT22;855;48.824;9.220;2023-04-03T08:11:29;6.20;73.30
1716;DHT22;855;48.824;9.220;2023-04-03T08:13:56;6.20;72.30
1716;DHT22;855;48.824;9.220;2023-04-03T08:16:24;6.30;73.30
1716;DHT22;855;48.824;9.220;2023-04-03T08:18:52;6.60;72.50
1716;DHT22;855;48.824;9.220;2023-04-03T08:21:19;6.70;71.70
1716;DHT22;855;48.824;9.220;2023-04-03T08:23:48;6.90;71.00
1716;DHT22;855;48.824;9.220;2023-04-03T08:26:18;6.80;70.50
1716;DHT22;855;48.824;9.220;2023-04-03T08:28:45;6.80;70.10
1716;DHT22;855;48.824;9.220;2023-04-03T08:31:14;6.80;70.80
1716;DHT22;855;48.824;9.220;2023-04-03T08:33:41;6.80;70.10
1716;DHT22;855;48.824;9.220;2023-04-03T08:36:17;6.90;70.90
1716;DHT22;855;48.824;9.220;2023-04-03T08:38:44;7.20;70.90
1716;DHT22;855;48.824;9.220;2023-04-03T08:41:14;7.30;69.40
1716;DHT22;855;48.824;9.220;2023-04-03T08:43:53;7.10;69.00
1716;DHT22;855;48.824;9.220;2023-04-03T08:46:25;6.90;69.60
1716;DHT22;855;48.824;9.220;2023-04-03T08:48:54;6.70;70.00
1716;DHT22;855;48.824;9.220;2023-04-03T08:51:25;6.80;70.20
1716;DHT22;855;48.824;9.220;2023-04-03T08:53:56;6.80;70.60
1716;DHT22;855;48.824;9.220;2023-04-03T08:56:25;6.60;70.80
1716;DHT22;855;48.824;9.220;2023-04-03T08:58:56;6.80;71.00
1716;DHT22;855;48.824;9.220;2023-04-03T09:01:27;6.80;69.80
1716;DHT22;855;48.824;9.220;2023-04-03T09:03:56;6.80;69.00
1716;DHT22;855;48.824;9.220;2023-04-03T09:06:26;7.00;70.00
1716;DHT22;855;48.824;9.220;2023-04-03T09:09:07;7.20;69.40
1716;DHT22;855;48.824;9.220;2023-04-03T09:11:45;7.30;68.80
1716;DHT22;855;48.824;9.220;2023-04-03T09:14:21;7.40;69.20
1716;DHT22;855;48.824;9.220;2023-04-03T09:16:55;7.60;68.50
1716;DHT22;855;48.824;9.220;2023-04-03T09:19:34;7.60;66.00
1716;DHT22;855;48.824;9.220;2023-04-03T09:22:09;7.40;67.10
1716;DHT22;855;48.824;9.220;2023-04-03T09:24:39;7.10;68.10
1716;DHT22;855;48.824;9.220;2023-04-03T09:27:09;7.20;68.10
1716;DHT22;855;48.824;9.220;2023-04-03T09:29:41;7.00;68.50
1716;DHT22;855;48.824;9.220;2023-04-03T09:32:22;7.20;68.40
1716;DHT22;855;48.824;9.220;2023-04-03T09:34:53;7.40;67.10
1716;DHT22;855;48.824;9.220;2023-04-03T09:37:35;7.70;66.90
1716;DHT22;855;48.824;9.220;2023-04-03T09:40:03;8.00;65.20
1716;DHT22;855;48.824;9.220;2023-04-03T09:42:31;7.80;63.90
1716;DHT22;855;48.824;9.220;2023-04-03T09:45:00;7.40;65.50
1716;DHT22;855;48.824;9.220;2023-04-03T09:47:29;7.60;64.90
1716;DHT22;855;48.824;9.220;2023-04-03T09:50:20;7.80;64.90
1716;DHT22;855;48.824;9.220;2023-04-03T09:52:49;7.90;64.30
1716;DHT22;855;48.824;9.220;2023-04-03T09:55:18;7.80;63.50
1716;DHT22;855;48.824;9.220;2023-04-03T09:57:47;7.50;64.00
1716;DHT22;855;48.824;9.220;2023-04-03T10:00:23;7.60;64.70
1716;DHT22;855;48.824;9.220;2023-04-03T10:02:53;7.60;65.30
1716;DHT22;855;48.824;9.220;2023-04-03T10:05:34;7.60;64.80
1716;DHT22;855;48.824;9.220;2023-04-03T10:08:10;7.40;64.90
1716;DHT22;855;48.824;9.220;2023-04-03T10:10:37;7.30;64.80
1716;DHT22;855;48.824;9.220;2023-04-03T10:13:07;7.30;65.10
1716;DHT22;855;48.824;9.220;2023-04-03T10:15:40;7.40;63.40
1716;DHT22;855;48.824;9.220;2023-04-03T10:18:19;7.60;62.20
1716;DHT22;855;48.824;9.220;2023-04-03T10:20:50;7.60;62.30
1716;DHT22;855;48.824;9.220;2023-04-03T10:23:20;7.70;63.90
1716;DHT22;855;48.824;9.220;2023-04-03T10:25:58;7.70;64.80
1716;DHT22;855;48.824;9.220;2023-04-03T10:28:32;7.70;65.20
1716;DHT22;855;48.824;9.220;2023-04-03T10:31:08;7.60;64.70
1716;DHT22;855;48.824;9.220;2023-04-03T10:33:45;7.70;65.10
1716;DHT22;855;48.824;9.220;2023-04-03T10:36:28;7.80;64.70
1716;DHT22;855;48.824;9.220;2023-04-03T10:39:02;8.00;64.20
1716;DHT22;855;48.824;9.220;2023-04-03T10:41:40;7.90;61.90
1716;DHT22;855;48.824;9.220;2023-04-03T10:44:17;7.90;60.70
1716;DHT22;855;48.824;9.220;2023-04-03T10:46:51;7.90;61.80
1716;DHT22;855;48.824;9.220;2023-04-03T10:49:34;7.90;60.40
1716;DHT22;855;48.824;9.220;2023-04-03T10:52:10;7.50;59.70
1716;DHT22;855;48.824;9.220;2023-04-03T10:54:41;7.50;60.40
1716;DHT22;855;48.824;9.220;2023-04-03T10:57:12;7.70;60.00
1716;DHT22;855;48.824;9.220;2023-04-03T10:59:43;7.70;59.40
1716;DHT22;855;48.824;9.220;2023-04-03T11:02:16;7.90;59.30
1716;DHT22;855;48.824;9.220;2023-04-03T11:04:47;7.80;58.70
1716;DHT22;855;48.824;9.220;2023-04-03T11:07:18;7.90;56.90
1716;DHT22;855;48.824;9.220;2023-04-03T11:09:49;7.70;57.70
1716;DHT22;855;48.824;9.220;2023-04-03T11:12:21;7.50;57.20
1716;DHT22;855;48.824;9.220;2023-04-03T11:14:51;7.60;57.40
1716;DHT22;855;48.824;9.220;2023-04-03T11:17:26;7.70;57.20
1716;DHT22;855;48.824;9.220;2023-04-03T11:19:59;7.80;56.40
1716;DHT22;855;48.824;9.220;2023-04-03T11:22:32;7.70;57.30
1716;DHT22;855;48.824;9.220;2023-04-03T11:25:04;7.70;57.50
1716;DHT22;855;48.824;9.220;2023-04-03T11:27:38;7.80;58.30
1716;DHT22;855;48.824;9.220;2023-04-03T11:30:14;7.80;58.00
1716;DHT22;855;48.824;9.220;2023-04-03T11:35:43;7.80;57.20
1716;DHT22;855;48.824;9.220;2023-04-03T11:38:17;7.60;57.70
1716;DHT22;855;48.824;9.220;2023-04-03T11:40:45;7.60;59.00
1716;DHT22;855;48.824;9.220;2023-04-03T11:43:22;7.60;59.40
1716;DHT22;855;48.824;9.220;2023-04-03T11:45:54;7.50;59.90
1716;DHT22;855;48.824;9.220;2023-04-03T11:48:47;7.50;59.50
1716;DHT22;855;48.824;9.220;2023-04-03T11:51:40;7.60;59.50
1716;DHT22;855;48.824;9.220;2023-04-03T11:54:42;7.60;58.80
1716;DHT22;855;48.824;9.220;2023-04-03T12:00:56;8.00;57.90
1716;DHT22;855;48.824;9.220;2023-04-03T12:06:58;7.90;58.40
1716;DHT22;855;48.824;9.220;2023-04-03T12:09:29;8.00;58.40
1716;DHT22;855;48.824;9.220;2023-04-03T12:11:59;8.10;58.50
1716;DHT22;855;48.824;9.220;2023-04-03T12:14:28;8.00;57.50
1716;DHT22;855;48.824;9.220;2023-04-03T12:16:55;8.00;56.90
1716;DHT22;855;48.824;9.220;2023-04-03T12:19:31;7.80;56.70
1716;DHT22;855;48.824;9.220;2023-04-03T12:22:11;7.90;56.90
1716;DHT22;855;48.824;9.220;2023-04-03T12:24:40;8.20;56.80
1716;DHT22;855;48.824;9.220;2023-04-03T12:27:33;8.30;56.00
1716;DHT22;855;48.824;9.220;2023-04-03T12:30:15;8.30;55.90
1716;DHT22;855;48.824;9.220;2023-04-03T12:33:02;8.30;54.80
1716;DHT22;855;48.824;9.220;2023-04-03T12:35:36;8.20;55.80
1716;DHT22;855;48.824;9.220;2023-04-03T12:41:40;8.20;54.40
1716;DHT22;855;48.824;9.220;2023-04-03T12:44:26;8.20;55.20
1716;DHT22;855;48.824;9.220;2023-04-03T12:47:00;8.20;54.80
1716;DHT22;855;48.824;9.220;2023-04-03T12:49:35;8.00;54.40
1716;DHT22;855;48.824;9.220;2023-04-03T12:52:18;8.10;54.50
1716;DHT22;855;48.824;9.220;2023-04-03T12:54:46;7.90;55.70
1716;DHT22;855;48.824;9.220;2023-04-03T12:57:18;8.20;56.30
1716;DHT22;855;48.824;9.220;2023-04-03T12:59:46;8.20;55.40
1716;DHT22;855;48.824;9.220;2023-04-03T13:02:21;8.50;54.90
1716;DHT22;855;48.824;9.220;2023-04-03T13:04:49;8.50;53.60
1716;DHT22;855;48.824;9.220;2023-04-03T13:07:21;8.40;54.40
1716;DHT22;855;48.824;9.220;2023-04-03T13:09:56;8.40;54.30
1716;DHT22;855;48.824;9.220;2023-04-03T13:12:24;8.70;54.30
1716;DHT22;855;48.824;9.220;2023-04-03T13:14:52;8.80;53.60
1716;DHT22;855;48.824;9.220;2023-04-03T13:17:19;8.80;52.20
1716;DHT22;855;48.824;9.220;2023-04-03T13:19:48;8.80;53.20
1716;DHT22;855;48.824;9.220;2023-04-03T13:22:26;8.80;54.30
1716;DHT22;855;48.824;9.220;2023-04-03T13:24:54;8.90;53.20
1716;DHT22;855;48.824;9.220;2023-04-03T13:27:23;8.60;51.70
1716;DHT22;855;48.824;9.220;2023-04-03T13:29:53;8.30;53.20
1716;DHT22;855;48.824;9.220;2023-04-03T13:32:23;8.30;53.10
1716;DHT22;855;48.824;9.220;2023-04-03T13:34:51;8.40;52.10
1716;DHT22;855;48.824;9.220;2023-04-03T13:37:21;8.40;51.90
1716;DHT22;855;48.824;9.220;2023-04-03T13:39:58;8.60;51.20
1716;DHT22;855;48.824;9.220;2023-04-03T13:42:30;8.80;49.30
1716;DHT22;855;48.824;9.220;2023-04-03T13:45:20;8.80;49.10
1716;DHT22;855;48.824;9.220;2023-04-03T13:47:51;9.00;48.80
1716;DHT22;855;48.824;9.220;2023-04-03T13:50:20;9.00;49.20
1716;DHT22;855;48.824;9.220;2023-04-03T13:52:49;8.80;49.20
1716;DHT22;855;48.824;9.220;2023-04-03T13:55:20;8.70;50.70
1716;DHT22;855;48.824;9.220;2023-04-03T13:57:55;8.70;50.80
1716;DHT22;855;48.824;9.220;2023-04-03T14:00:33;8.70;50.60
1716;DHT22;855;48.824;9.220;2023-04-03T14:03:00;8.80;50.60
1716;DHT22;855;48.824;9.220;2023-04-03T14:05:27;8.90;51.60
1716;DHT22;855;48.824;9.220;2023-04-03T14:07:54;8.90;51.90
1716;DHT22;855;48.824;9.220;2023-04-03T14:10:22;9.00;50.90
1716;DHT22;855;48.824;9.220;2023-04-03T14:12:49;9.20;50.70
1716;DHT22;855;48.824;9.220;2023-04-03T14:15:22;9.00;49.70
1716;DHT22;855;48.824;9.220;2023-04-03T14:17:50;9.00;51.30
1716;DHT22;855;48.824;9.220;2023-04-03T14:20:20;9.00;50.70
1716;DHT22;855;48.824;9.220;2023-04-03T14:22:47;9.00;50.60
1716;DHT22;855;48.824;9.220;2023-04-03T14:25:15;9.10;48.70
1716;DHT22;855;48.824;9.220;2023-04-03T14:27:44;8.90;48.30
1716;DHT22;855;48.824;9.220;2023-04-03T14:30:14;8.80;48.20
1716;DHT22;855;48.824;9.220;2023-04-03T14:32:43;8.80;48.70
1716;DHT22;855;48.824;9.220;2023-04-03T14:35:11;8.80;49.80
1716;DHT22;855;48.824;9.220;2023-04-03T14:37:37;9.10;50.80
1716;DHT22;855;48.824;9.220;2023-04-03T14:40:07;9.30;48.30
1716;DHT22;855;48.824;9.220;2023-04-03T14:42:36;9.40;48.70
1716;DHT22;855;48.824;9.220;2023-04-03T14:45:05;9.40;48.40
1716;DHT22;855;48.824;9.220;2023-04-03T14:47:33;9.20;47.80
1716;DHT22;855;48.824;9.220;2023-04-03T14:50:06;9.30;48.10
1716;DHT22;855;48.824;9.220;2023-04-03T14:52:35;9.30;47.70
1716;DHT22;855;48.824;9.220;2023-04-03T14:55:04;8.60;47.80
1716;DHT22;855;48.824;9.220;2023-04-03T14:57:31;8.60;48.70
1716;DHT22;855;48.824;9.220;2023-04-03T14:59:59;8.50;49.10
1716;DHT22;855;48.824;9.220;2023-04-03T15:02:29;8.60;48.80
1716;DHT22;855;48.824;9.220;2023-04-03T15:04:56;8.60;49.10
1716;DHT22;855;48.824;9.220;2023-04-03T15:07:27;8.60;49.60
1716;DHT22;855;48.824;9.220;2023-04-03T15:09:55;8.60;48.80
1716;DHT22;855;48.824;9.220;2023-04-03T15:12:22;8.50;49.10
1716;DHT22;855;48.824;9.220;2023-04-03T15:14:49;8.70;49.20
1716;DHT22;855;48.824;9.220;2023-04-03T15:17:19;9.00;49.30
1716;DHT22;855;48.824;9.220;2023-04-03T15:19:47;8.80;47.50
1716;DHT22;855;48.824;9.220;2023-04-03T15:22:15;9.00;48.30
1716;DHT22;855;48.824;9.220;2023-04-03T15:24:44;8.80;47.50
1716;DHT22;855;48.824;9.220;2023-04-03T15:27:12;8.30;48.70
1716;DHT22;855;48.824;9.220;2023-04-03T15:29:40;8.40;49.40
1716;DHT22;855;48.824;9.220;2023-04-03T15:32:08;8.40;48.80
1716;DHT22;855;48.824;9.220;2023-04-03T15:34:36;8.40;48.10
1716;DHT22;855;48.824;9.220;2023-04-03T15:37:02;8.40;49.60
1716;DHT22;855;48.824;9.220;2023-04-03T15:39:29;8.50;48.80
1716;DHT22;855;48.824;9.220;2023-04-03T15:41:58;8.30;48.20
1716;DHT22;855;48.824;9.220;2023-04-03T15:44:31;8.50;49.70
1716;DHT22;855;48.824;9.220;2023-04-03T15:46:58;8.50;48.30
1716;DHT22;855;48.824;9.220;2023-04-03T15:49:25;8.50;47.00
1716;DHT22;855;48.824;9.220;2023-04-03T15:51:52;8.40;47.00
1716;DHT22;855;48.824;9.220;2023-04-03T15:54:19;8.50;47.60
1716;DHT22;855;48.824;9.220;2023-04-03T15:56:46;8.60;47.30
1716;DHT22;855;48.824;9.220;2023-04-03T15:59:14;8.50;47.50
1716;DHT22;855;48.824;9.220;2023-04-03T16:01:41;8.40;47.50
1716;DHT22;855;48.824;9.220;2023-04-03T16:04:09;8.50;47.60
1716;DHT22;855;48.824;9.220;2023-04-03T16:06:36;8.80;47.70
1716;DHT22;855;48.824;9.220;2023-04-03T16:09:03;8.80;47.60
1716;DHT22;855;48.824;9.220;2023-04-03T16:11:30;8.80;47.80
1716;DHT22;855;48.824;9.220;2023-04-03T16:13:57;8.80;47.70
1716;DHT22;855;48.824;9.220;2023-04-03T16:16:26;8.70;47.70
1716;DHT22;855;48.824;9.220;2023-04-03T16:18:53;8.70;48.20
1716;DHT22;855;48.824;9.220;2023-04-03T16:21:21;8.60;48.20
1716;DHT22;855;48.824;9.220;2023-04-03T16:23:49;8.60;49.40
1716;DHT22;855;48.824;9.220;2023-04-03T16:26:16;8.60;49.20
1716;DHT22;855;48.824;9.220;2023-04-03T16:28:43;8.50;48.60
1716;DHT22;855;48.824;9.220;2023-04-03T16:31:10;8.60;48.90
1716;DHT22;855;48.824;9.220;2023-04-03T16:33:39;8.80;48.80
1716;DHT22;855;48.824;9.220;2023-04-03T16:36:06;8.70;48.10
1716;DHT22;855;48.824;9.220;2023-04-03T16:38:33;8.70;47.50
1716;DHT22;855;48.824;9.220;2023-04-03T16:41:00;8.70;47.60
1716;DHT22;855;48.824;9.220;2023-04-03T16:43:30;8.80;47.60
1716;DHT22;855;48.824;9.220;2023-04-03T16:45:57;8.80;47.70
1716;DHT22;855;48.824;9.220;2023-04-03T16:48:24;8.80;47.10
1716;DHT22;855;48.824;9.220;2023-04-03T16:50:52;8.80;46.80
1716;DHT22;855;48.824;9.220;2023-04-03T16:53:19;8.70;47.20
1716;DHT22;855;48.824;9.220;2023-04-03T16:55:46;8.60;47.60
1716;DHT22;855;48.824;9.220;2023-04-03T16:58:13;8.70;48.40
1716;DHT22;855;48.824;9.220;2023-04-03T17:00:40;8.70;47.70
1716;DHT22;855;48.824;9.220;2023-04-03T17:03:07;8.80;46.80